createdAt,value
2022-09-12T00:02:14.018Z,12.36
2022-09-12T00:06:22.969Z,12.34
2022-09-12T00:10:26.967Z,12.20
2022-09-12T00:14:31.820Z,12.17
2022-09-12T00:18:35.368Z,12.07
2022-09-12T00:22:38.885Z,12.01
2022-09-12T00:26:41.895Z,12.06
2022-09-12T00:30:48.181Z,11.95
2022-09-12T00:34:51.136Z,11.87
2022-09-12T00:38:54.961Z,11.88
2022-09-12T00:42:57.940Z,11.90
2022-09-12T00:47:07.047Z,11.80
2022-09-12T00:51:11.074Z,11.74
2022-09-12T00:55:18.508Z,11.71
2022-09-12T00:59:27.152Z,11.81
2022-09-12T01:03:32.549Z,11.72
2022-09-12T01:07:39.867Z,11.76
2022-09-12T01:11:46.278Z,12.02
2022-09-12T01:15:49.411Z,11.99
2022-09-12T01:20:33.083Z,11.83
2022-09-12T01:24:52.949Z,11.85
2022-09-12T01:29:15.775Z,11.96
2022-09-12T01:33:40.036Z,11.95
2022-09-12T01:37:54.271Z,11.90
2022-09-12T01:42:10.634Z,11.70
2022-09-12T01:46:17.980Z,11.71
2022-09-12T01:50:26.988Z,11.63
2022-09-12T01:54:38.265Z,11.65
2022-09-12T01:58:46.756Z,11.50
2022-09-12T02:02:56.391Z,11.41
2022-09-12T02:07:07.441Z,11.36
2022-09-12T02:11:12.808Z,11.42
2022-09-12T02:15:19.424Z,11.62
2022-09-12T02:19:25.346Z,11.60
2022-09-12T02:23:32.691Z,11.44
2022-09-12T02:27:41.536Z,11.37
2022-09-12T02:31:47.663Z,11.31
2022-09-12T02:35:55.586Z,11.30
2022-09-12T02:40:01.770Z,11.32
2022-09-12T02:44:05.963Z,11.29
2022-09-12T02:48:13.918Z,11.28
2022-09-12T02:52:17.255Z,11.28
2022-09-12T02:56:27.079Z,11.23
2022-09-12T03:00:35.289Z,11.27
2022-09-12T03:04:53.392Z,11.30
2022-09-12T03:09:05.773Z,11.17
2022-09-12T03:13:23.257Z,11.24
2022-09-12T03:17:36.006Z,11.30
2022-09-12T03:21:47.298Z,11.18
2022-09-12T03:25:57.071Z,11.14
2022-09-12T03:30:02.136Z,11.21
2022-09-12T03:34:06.112Z,11.12
2022-09-12T03:38:12.064Z,11.13
2022-09-12T03:42:15.065Z,11.27
2022-09-12T03:46:19.403Z,11.24
2022-09-12T03:50:22.429Z,11.42
2022-09-12T03:54:25.669Z,11.37
2022-09-12T03:58:32.043Z,11.28
2022-09-12T04:02:36.777Z,11.51
2022-09-12T04:06:39.886Z,11.50
2022-09-12T04:10:43.148Z,11.49
2022-09-12T04:14:46.365Z,11.63
2022-09-12T04:18:50.685Z,11.70
2022-09-12T04:22:53.618Z,11.85
2022-09-12T04:26:56.698Z,11.81
2022-09-12T04:31:04.034Z,11.94
2022-09-12T04:35:08.873Z,11.93
2022-09-12T04:39:12.851Z,11.92
2022-09-12T04:43:16.152Z,11.88
2022-09-12T04:47:19.165Z,11.85
2022-09-12T04:51:27.918Z,11.86
2022-09-12T04:55:31.199Z,11.79
2022-09-12T04:59:35.028Z,11.87
2022-09-12T05:03:39.664Z,11.92
2022-09-12T05:07:44.308Z,12.02
2022-09-12T05:12:03.644Z,12.03
2022-09-12T05:16:08.853Z,12.04
2022-09-12T05:20:12.878Z,12.14
2022-09-12T05:24:17.364Z,12.20
2022-09-12T05:28:22.656Z,12.26
2022-09-12T05:32:25.741Z,12.29
2022-09-12T05:36:31.076Z,12.35
2022-09-12T05:40:35.840Z,12.46
2022-09-12T05:44:38.786Z,12.54
2022-09-12T05:48:43.518Z,12.62
2022-09-12T05:52:46.457Z,12.75
2022-09-12T05:56:51.138Z,12.77
2022-09-12T06:00:54.132Z,12.78
2022-09-12T06:04:57.123Z,12.97
2022-09-12T06:09:02.529Z,13.06
2022-09-12T06:13:06.816Z,13.13
2022-09-12T06:17:10.369Z,13.34
2022-09-12T06:21:14.488Z,13.52
2022-09-12T06:25:17.419Z,13.58
2022-09-12T06:29:22.065Z,13.88
2022-09-12T06:33:25.109Z,13.97
2022-09-12T06:37:28.530Z,14.13
2022-09-12T06:41:32.324Z,14.27
2022-09-12T06:45:37.249Z,14.52
2022-09-12T06:49:40.313Z,14.57
2022-09-12T06:53:44.488Z,14.88
2022-09-12T06:57:47.481Z,15.06
2022-09-12T07:01:52.087Z,15.27
2022-09-12T07:05:55.109Z,15.42
2022-09-12T07:09:58.532Z,15.57
2022-09-12T07:14:03.153Z,15.78
2022-09-12T07:18:07.913Z,15.97
2022-09-12T07:22:10.881Z,16.03
2022-09-12T07:26:15.998Z,16.27
2022-09-12T07:30:19.538Z,16.47
2022-09-12T07:34:23.890Z,16.63
2022-09-12T07:38:27.142Z,16.61
2022-09-12T07:42:31.062Z,16.68
2022-09-12T07:46:35.236Z,16.85
2022-09-12T07:50:43.210Z,17.12
2022-09-12T07:54:48.096Z,16.84
2022-09-12T07:58:51.293Z,16.89
2022-09-12T08:02:56.655Z,17.62
2022-09-12T08:07:01.059Z,18.46
2022-09-12T08:11:06.452Z,19.67
2022-09-12T08:15:10.285Z,20.51
2022-09-12T08:19:13.255Z,20.03
2022-09-12T08:23:18.091Z,21.02
2022-09-12T08:27:21.127Z,21.55
2022-09-12T08:31:26.795Z,21.77
2022-09-12T08:35:29.807Z,21.31
2022-09-12T08:39:34.633Z,21.72
2022-09-12T08:43:54.515Z,21.85
2022-09-12T08:48:03.195Z,21.74
2022-09-12T08:52:13.293Z,22.60
2022-09-12T08:56:17.753Z,22.27
2022-09-12T09:00:22.263Z,22.55
2022-09-12T09:04:44.087Z,22.88
2022-09-12T09:08:57.086Z,23.23
2022-09-12T09:13:09.739Z,24.17
2022-09-12T09:17:16.734Z,24.35
2022-09-12T09:21:25.088Z,25.19
2022-09-12T09:25:42.170Z,24.90
2022-09-12T09:29:49.998Z,25.31
2022-09-12T09:33:55.278Z,25.17
2022-09-12T09:38:18.967Z,27.17
2022-09-12T09:42:37.528Z,26.97
2022-09-12T09:46:42.067Z,25.67
2022-09-12T09:50:47.187Z,25.51
2022-09-12T09:54:54.301Z,26.92
2022-09-12T09:58:57.431Z,25.84
2022-09-12T10:03:20.491Z,26.21
2022-09-12T10:07:24.802Z,25.98
2022-09-12T10:11:30.360Z,27.48
2022-09-12T10:15:34.818Z,26.09
2022-09-12T10:19:40.959Z,27.06
2022-09-12T10:23:44.793Z,28.20
2022-09-12T10:27:55.159Z,28.02
2022-09-12T10:32:02.223Z,26.94
2022-09-12T10:36:07.198Z,26.74
2022-09-12T10:40:25.037Z,27.80
2022-09-12T10:44:29.640Z,26.31
2022-09-12T10:48:33.574Z,25.98
2022-09-12T10:52:38.170Z,27.35
2022-09-12T10:56:56.422Z,27.73
2022-09-12T11:01:11.018Z,28.24
2022-09-12T11:05:22.560Z,27.78
2022-09-12T11:09:33.250Z,26.87
2022-09-12T11:13:54.920Z,27.56
2022-09-12T11:18:06.436Z,26.78
2022-09-12T11:22:23.351Z,27.50
2022-09-12T11:26:43.715Z,27.33
2022-09-12T11:31:01.159Z,27.91
2022-09-12T11:35:17.288Z,28.49
2022-09-12T11:39:24.666Z,27.29
2022-09-12T11:43:37.975Z,27.77
2022-09-12T11:47:42.958Z,27.59
2022-09-12T11:51:51.797Z,29.09
2022-09-12T11:56:00.466Z,29.24
2022-09-12T12:00:08.849Z,28.98
2022-09-12T12:04:13.917Z,29.87
2022-09-12T12:08:17.195Z,29.02
2022-09-12T12:12:26.227Z,27.83
2022-09-12T12:16:34.689Z,28.93
2022-09-12T12:20:37.869Z,29.04
2022-09-12T12:24:57.367Z,29.69
2022-09-12T12:29:00.960Z,28.75
2022-09-12T12:33:33.048Z,28.76
2022-09-12T12:38:03.975Z,27.74
2022-09-12T12:42:06.998Z,28.40
2022-09-12T12:46:13.322Z,28.52
2022-09-12T12:50:26.789Z,27.02
2022-09-12T12:54:33.458Z,26.88
2022-09-12T12:58:40.670Z,27.30
2022-09-12T13:02:52.986Z,28.11
2022-09-12T13:07:07.901Z,28.38
2022-09-12T13:11:16.121Z,28.52
2022-09-12T13:15:48.682Z,29.78
2022-09-12T13:20:10.853Z,29.49
2022-09-12T13:24:19.282Z,30.18
2022-09-12T15:32:26.036Z,29.83
2022-09-12T15:36:30.994Z,29.46
2022-09-12T15:40:34.105Z,28.53
2022-09-12T15:44:37.128Z,28.71
2022-09-12T15:48:41.590Z,29.87
2022-09-12T15:52:44.866Z,30.28
2022-09-12T15:56:48.142Z,29.51
2022-09-12T16:00:51.144Z,28.68
2022-09-12T16:04:56.154Z,28.93
2022-09-12T16:08:59.078Z,29.78
2022-09-12T16:13:04.322Z,29.37
2022-09-12T16:17:07.916Z,29.88
2022-09-12T16:21:15.236Z,29.52
2022-09-12T16:25:18.628Z,29.73
2022-09-12T16:29:21.760Z,28.04
2022-09-12T16:33:25.448Z,27.82
2022-09-12T16:37:30.088Z,28.45
2022-09-12T16:41:33.145Z,29.63
2022-09-12T16:45:36.212Z,29.94
2022-09-12T16:49:39.372Z,30.87
2022-09-12T16:53:44.231Z,29.30
2022-09-12T16:57:49.520Z,30.01
2022-09-12T17:01:52.657Z,28.93
2022-09-12T17:05:59.641Z,29.44
2022-09-12T17:10:04.132Z,30.48
2022-09-12T17:14:09.050Z,29.83
2022-09-12T17:18:12.294Z,28.83
2022-09-12T17:22:15.455Z,26.68
2022-09-12T17:26:20.838Z,26.00
2022-09-12T17:30:23.876Z,25.11
2022-09-12T17:34:26.965Z,24.90
2022-09-12T17:38:32.840Z,24.18
2022-09-12T17:42:37.281Z,23.23
2022-09-12T17:46:40.875Z,23.05
2022-09-12T17:50:43.991Z,22.75
2022-09-12T17:54:47.050Z,22.26
2022-09-12T17:58:51.888Z,21.70
2022-09-12T18:02:55.602Z,21.33
2022-09-12T18:07:00.415Z,20.99
2022-09-12T18:11:05.547Z,20.69
2022-09-12T18:15:11.386Z,20.62
2022-09-12T18:19:16.153Z,20.46
2022-09-12T18:23:19.153Z,20.32
2022-09-12T18:27:22.558Z,20.10
2022-09-12T18:31:30.210Z,20.04
2022-09-12T18:35:33.336Z,19.92
2022-09-12T18:39:37.735Z,19.79
2022-09-12T18:43:40.958Z,19.71
2022-09-12T18:47:45.365Z,19.69
2022-09-12T18:51:48.550Z,19.58
2022-09-12T18:55:54.324Z,19.68
2022-09-12T18:59:59.664Z,19.57
2022-09-12T19:08:48.840Z,19.23
2022-09-12T19:19:00.177Z,19.00
2022-09-12T19:23:12.583Z,18.92
2022-09-12T19:27:16.876Z,18.80
2022-09-12T19:31:21.735Z,18.66
2022-09-12T19:35:24.728Z,18.33
2022-09-12T19:39:27.730Z,18.32
2022-09-12T19:43:33.060Z,18.32
2022-09-12T19:47:36.393Z,18.34
2022-09-12T19:51:39.539Z,18.36
2022-09-12T19:55:42.844Z,18.33
2022-09-12T19:59:48.119Z,18.35
2022-09-12T20:03:52.638Z,18.29
2022-09-12T20:07:55.690Z,18.34
2022-09-12T20:11:59.705Z,18.19
2022-09-12T20:16:09.130Z,18.19
2022-09-12T20:20:12.271Z,18.13
2022-09-12T20:24:15.910Z,18.03
2022-09-12T20:28:19.091Z,18.16
2022-09-12T20:32:23.635Z,18.19
2022-09-12T20:36:28.378Z,18.33
2022-09-12T20:40:31.413Z,18.24
2022-09-12T20:44:34.545Z,18.15
2022-09-12T20:48:39.646Z,18.05
2022-09-12T20:52:42.644Z,18.06
2022-09-12T20:56:45.773Z,18.03
2022-09-12T21:00:49.156Z,17.98
2022-09-12T21:04:54.206Z,17.84
2022-09-12T21:08:59.828Z,17.82
2022-09-12T21:13:03.319Z,17.78
2022-09-12T21:17:06.462Z,17.81
2022-09-12T21:21:13.266Z,18.02
2022-09-12T21:25:16.459Z,18.27
2022-09-12T21:29:19.591Z,18.55
2022-09-12T21:33:23.130Z,18.68
2022-09-12T21:37:27.656Z,18.80
2022-09-12T21:41:30.698Z,18.93
2022-09-12T21:45:34.258Z,18.85
2022-09-12T21:49:37.272Z,18.70
2022-09-12T21:53:42.453Z,18.72
2022-09-12T21:57:45.605Z,18.68
2022-09-12T22:01:48.695Z,18.72
2022-09-12T22:05:52.576Z,18.34
2022-09-12T22:09:57.119Z,18.25
2022-09-12T22:14:00.288Z,18.46
2022-09-12T22:18:03.270Z,18.41
2022-09-12T22:22:24.382Z,18.31
2022-09-12T22:26:29.292Z,18.10
2022-09-12T22:30:32.491Z,18.04
2022-09-12T22:34:35.482Z,18.06
2022-09-12T22:38:38.712Z,17.92
2022-09-12T22:42:43.057Z,18.12
2022-09-12T22:46:47.359Z,18.45
2022-09-12T22:50:50.657Z,18.58
2022-09-12T22:54:53.854Z,18.57
2022-09-12T22:58:58.572Z,18.65
2022-09-12T23:03:01.970Z,18.67
2022-09-12T23:07:05.247Z,18.68
2022-09-12T23:11:10.539Z,18.71
2022-09-12T23:15:15.262Z,18.63
2022-09-12T23:19:18.309Z,18.59
2022-09-12T23:23:21.285Z,18.61
2022-09-12T23:27:27.085Z,18.38
2022-09-12T23:31:32.733Z,18.29
2022-09-12T23:35:36.705Z,18.12
2022-09-12T23:39:39.779Z,17.92
2022-09-12T23:43:45.363Z,17.71
2022-09-12T23:47:49.713Z,17.77
2022-09-12T23:51:52.738Z,17.79
2022-09-12T23:55:55.791Z,17.71
2022-09-12T23:59:58.793Z,17.85
